CYHU/YHU METAR and TAF weather

Enter ICAO airport designator
Station Type Date Time Source
CYHU METAR 2019/10/21 02:00 UTC NOAA

CYHU 210200Z AUTO 00000KT 9SM CLR 04/04 A3000 RMK SLP162


Station Type Date Time Source
CYHU Decoded METAR 2019/10/21 02:00 UTC NOAA

Saint Hubert Airport , Canada (CYHU) 45-31N 073-25W
Oct 20, 2019 - 10:00 PM EDT / 2019.10.21 0200 UTC
Wind: Calm:0
Visibility: 9 mile(s):0
Sky conditions: clear
Temperature: 39 F (4 C)
Dew Point: 39 F (4 C)
Relative Humidity: 100%
Pressure (altimeter): 30 in. Hg (1015 hPa)
ob: CYHU 210200Z AUTO 00000KT 9SM CLR 04/04 A3000 RMK SLP162
cycle: 2

Station Type Date Time Source
CYHU TAF 2019/10/20 18:42 UTC NOAA

TAF CYHU 201739Z 2018/2118 03008KT P6SM BKN180
BECMG 2023/2101 VRB03KT
FM210500 VRB03KT P6SM FEW100
TEMPO 2105/2115 2SM BR PROB30 2108/2115 1/2SM FG
RMK FCST BASED ON AUTO OBS. NXT FCST BY 210000Z

Example: see airport list